| time (UTC) | temp F | wind direction | speed knots | gust knots | rain 1hr in | rain 24hr in | rain mn in | humidity % | barometer mb |
| 20260902165504 | 55 | 111 | 0.0 | 0.0 | 0.00 | 0.07 | 0.07 | 88 | 995.9 |
| 20260902165004 | 55 | 111 | 0.0 | 0.0 | 0.00 | 0.07 | 0.07 | 88 | 996.0 |
| 20260902164504 | 55 | 111 | 0.0 | 0.0 | 0.00 | 0.07 | 0.07 | 88 | 996.0 |
| 20260902164004 | 55 | 111 | 0.0 | 0.0 | 0.00 | 0.07 | 0.07 | 89 | 996.0 |
| 20260902163504 | 56 | 111 | 0.0 | 0.0 | 0.00 | 0.07 | 0.07 | 88 | 996.0 |
| 20260902163004 | 56 | 111 | 0.0 | 0.0 | 0.00 | 0.07 | 0.07 | 88 | 996.0 |
| 20260902162504 | 56 | 111 | 0.0 | 0.0 | 0.00 | 0.07 | 0.07 | 88 | 996.0 |
| 20260902161504 | 56 | 112 | 0.0 | 2.6 | 0.00 | 0.07 | 0.07 | 88 | 996.1 |
| 20260902160504 | 57 | 112 | 0.0 | 0.0 | 0.00 | 0.07 | 0.07 | 88 | 996.1 |
| 20260902160005 | 57 | 112 | 0.0 | 0.0 | 0.00 | 0.07 | 0.07 | 88 | 996.1 |
| 20260902155504 | 57 | 112 | 0.0 | 2.6 | 0.00 | 0.07 | 0.07 | 88 | 996.2 |
| 20260902155005 | 57 | 112 | 1.7 | 4.3 | 0.00 | 0.07 | 0.07 | 88 | 996.2 |
| 20260902154504 | 57 | 138 | 0.0 | 2.6 | 0.00 | 0.07 | 0.07 | 88 | 996.3 |
| 20260902153504 | 57 | 152 | 0.9 | 2.6 | 0.00 | 0.07 | 0.07 | 88 | 996.4 |
| 20260902153004 | 57 | 188 | 0.0 | 0.0 | 0.00 | 0.07 | 0.07 | 88 | 996.5 |
| 20260902151504 | 57 | 200 | 0.0 | 1.7 | 0.01 | 0.07 | 0.07 | 88 | 996.7 |
| 20260902151004 | 57 | 211 | 0.9 | 2.6 | 0.02 | 0.07 | 0.07 | 87 | 996.6 |
| 20260902150504 | 57 | 215 | 0.0 | 0.0 | 0.03 | 0.07 | 0.07 | 87 | 996.8 |
| 20260902150004 | 57 | 215 | 0.0 | 1.7 | 0.04 | 0.07 | 0.07 | 87 | 996.8 |
| 20260902145504 | 56 | 216 | 0.0 | 0.0 | 0.04 | 0.07 | 0.07 | 88 | 996.8 |
| 20260902145004 | 56 | 216 | 0.0 | 0.0 | 0.04 | 0.07 | 0.07 | 88 | 996.8 |
| 20260902144504 | 56 | 216 | 0.0 | 0.0 | 0.04 | 0.07 | 0.07 | 88 | 996.8 |
| 20260902144004 | 56 | 216 | 0.0 | 0.0 | 0.04 | 0.07 | 0.07 | 88 | 996.8 |
| 20260902143504 | 56 | 216 | 0.0 | 1.7 | 0.04 | 0.07 | 0.07 | 87 | 996.8 |
| 20260902143004 | 56 | 216 | 0.9 | 1.7 | 0.04 | 0.07 | 0.07 | 87 | 996.9 |
| 20260902142004 | 55 | 218 | 0.0 | 0.0 | 0.04 | 0.06 | 0.06 | 88 | 997.1 |
| 20260902141504 | 55 | 218 | 0.0 | 0.0 | 0.04 | 0.06 | 0.06 | 88 | 997.2 |
| 20260902141004 | 55 | 218 | 0.0 | 0.0 | 0.03 | 0.05 | 0.05 | 88 | 997.2 |
| 20260902140504 | 55 | 218 | 0.0 | 0.0 | 0.02 | 0.04 | 0.04 | 88 | 997.3 |
| 20260902140004 | 56 | 218 | 0.0 | 0.0 | 0.02 | 0.03 | 0.03 | 88 | 997.6 |
| 20260902135504 | 56 | 218 | 0.0 | 0.9 | 0.02 | 0.03 | 0.03 | 87 | 997.7 |
| 20260902135004 | 56 | 218 | 0.0 | 0.0 | 0.02 | 0.03 | 0.03 | 87 | 997.7 |
| 20260902134504 | 56 | 218 | 0.0 | 0.0 | 0.02 | 0.03 | 0.03 | 87 | 997.6 |
| 20260902134004 | 57 | 218 | 0.0 | 0.0 | 0.02 | 0.03 | 0.03 | 86 | 997.5 |
| 20260902133504 | 57 | 218 | 0.0 | 0.0 | 0.02 | 0.03 | 0.03 | 86 | 997.5 |
| 20260902133004 | 57 | 218 | 0.0 | 0.0 | 0.02 | 0.03 | 0.03 | 86 | 997.6 |
| 20260902132504 | 57 | 218 | 0.0 | 0.0 | 0.01 | 0.02 | 0.02 | 84 | 997.6 |
| 20260902132004 | 58 | 218 | 0.0 | 0.0 | 0.01 | 0.02 | 0.02 | 83 | 997.7 |
| 20260902131504 | 58 | 218 | 0.0 | 0.0 | 0.01 | 0.02 | 0.02 | 80 | 997.7 |
| 20260902130504 | 60 | 217 | 0.0 | 4.3 | 0.01 | 0.02 | 0.02 | 76 | 997.7 |
| 20260902130004 | 61 | 198 | 2.6 | 7.0 | 0.00 | 0.01 | 0.01 | 72 | 997.5 |
| 20260902125504 | 62 | 132 | 0.9 | 2.6 | 0.00 | 0.01 | 0.01 | 70 | 997.5 |
| 20260902125004 | 63 | 127 | 0.0 | 0.9 | 0.00 | 0.01 | 0.01 | 68 | 997.4 |
| 20260902124504 | 64 | 127 | 0.0 | 5.2 | 0.00 | 0.01 | 0.01 | 65 | 997.2 |
| 20260902124004 | 65 | 116 | 0.9 | 5.2 | 0.00 | 0.01 | 0.01 | 61 | 997.2 |
| 20260902123004 | 66 | 98 | 1.7 | 4.3 | 0.00 | 0.01 | 0.01 | 62 | 997.2 |
| 20260902122504 | 67 | 81 | 1.7 | 4.3 | 0.00 | 0.01 | 0.01 | 61 | 997.2 |
| 20260902121504 | 67 | 105 | 1.7 | 5.2 | 0.00 | 0.01 | 0.01 | 62 | 997.4 |
| 20260902121004 | 66 | 101 | 1.7 | 6.1 | 0.00 | 0.01 | 0.01 | 64 | 997.4 |
| 20260902120504 | 66 | 102 | 2.6 | 5.2 | 0.00 | 0.01 | 0.01 | 62 | 997.4 |
| 20260902120004 | 66 | 83 | 1.7 | 4.3 | 0.00 | 0.01 | 0.01 | 62 | 997.4 |
| 20260902115005 | 66 | 100 | 3.5 | 7.0 | 0.00 | 0.01 | 0.01 | 64 | 997.5 |
| 20260902114504 | 65 | 113 | 1.7 | 5.2 | 0.00 | 0.01 | 0.01 | 66 | 997.7 |
| 20260902114004 | 64 | 130 | 1.7 | 4.3 | 0.00 | 0.01 | 0.01 | 66 | 997.7 |
| 20260902113504 | 63 | 104 | 0.0 | 0.0 | 0.00 | 0.01 | 0.01 | 67 | 997.7 |
| 20260902113004 | 63 | 99 | 0.0 | 0.0 | 0.00 | 0.01 | 0.01 | 66 | 997.8 |
| 20260902112504 | 63 | 98 | 0.0 | 0.0 | 0.00 | 0.01 | 0.01 | 66 | 997.8 |
| 20260902112004 | 63 | 98 | 0.0 | 0.0 | 0.00 | 0.01 | 0.01 | 66 | 997.8 |
| 20260902111504 | 63 | 98 | 0.0 | 0.9 | 0.00 | 0.01 | 0.01 | 65 | 997.9 |
| 20260902111004 | 63 | 101 | 0.0 | 0.0 | 0.00 | 0.01 | 0.01 | 63 | 997.8 |
| 20260902110504 | 63 | 101 | 0.0 | 0.0 | 0.00 | 0.01 | 0.01 | 64 | 997.9 |
| 20260902110007 | 63 | 99 | 0.0 | 0.0 | 0.00 | 0.01 | 0.01 | 65 | 997.9 |
| 20260902105506 | 63 | 99 | 0.0 | 0.0 | 0.00 | 0.01 | 0.01 | 65 | 997.9 |
| 20260902105004 | 63 | 99 | 0.0 | 0.0 | 0.00 | 0.01 | 0.01 | 66 | 997.9 |
| 20260902104004 | 62 | 97 | 0.0 | 0.0 | 0.00 | 0.01 | 0.01 | 67 | 998.0 |
| 20260902103504 | 62 | 83 | 0.0 | 0.0 | 0.00 | 0.01 | 0.01 | 65 | 998.0 |
| 20260902103004 | 61 | 87 | 0.0 | 0.0 | 0.00 | 0.01 | 0.01 | 69 | 998.1 |
| 20260902102504 | 60 | 88 | 0.0 | 0.0 | 0.00 | 0.01 | 0.01 | 68 | 998.2 |
| 20260902102004 | 60 | 90 | 0.0 | 0.0 | 0.00 | 0.01 | 0.01 | 69 | 998.2 |
| 20260902101504 | 60 | 55 | 0.0 | 0.0 | 0.00 | 0.01 | 0.01 | 66 | 998.2 |
| 20260902101004 | 60 | 55 | 0.0 | 0.0 | 0.00 | 0.01 | 0.01 | 63 | 998.3 |
| 20260902100505 | 61 | 55 | 0.0 | 0.0 | 0.00 | 0.01 | 0.01 | 65 | 998.4 |
| 20260902100004 | 60 | 55 | 0.0 | 0.0 | 0.00 | 0.01 | 0.01 | 65 | 998.4 |
| 20260902095504 | 60 | 55 | 0.0 | 0.0 | 0.00 | 0.01 | 0.01 | 66 | 998.3 |
| 20260902094504 | 59 | 55 | 0.0 | 0.0 | 0.00 | 0.01 | 0.01 | 69 | 998.5 |
| 20260902093504 | 59 | 54 | 0.0 | 0.0 | 0.00 | 0.01 | 0.01 | 70 | 998.6 |
| 20260902093004 | 58 | 48 | 0.0 | 0.0 | 0.00 | 0.01 | 0.01 | 71 | 998.6 |
| 20260902092509 | 58 | 38 | 0.0 | 0.0 | 0.00 | 0.01 | 0.01 | 72 | 998.6 |
| 20260902092009 | 57 | 38 | 0.0 | 0.0 | 0.00 | 0.01 | 0.01 | 73 | 998.6 |
| 20260902091504 | 57 | 37 | 0.0 | 0.0 | 0.00 | 0.01 | 0.01 | 73 | 998.6 |
| 20260902090005 | 56 | 10 | 0.0 | 0.0 | 0.00 | 0.01 | 0.01 | 77 | 998.7 |
| 20260902085504 | 55 | 5 | 0.0 | 0.0 | 0.00 | 0.01 | 0.01 | 77 | 998.7 |
| 20260902085004 | 55 | 5 | 0.0 | 0.0 | 0.00 | 0.01 | 0.01 | 76 | 998.8 |
| 20260902084504 | 55 | 5 | 0.0 | 0.0 | 0.00 | 0.01 | 0.01 | 75 | 998.8 |
| 20260902084004 | 55 | 5 | 0.0 | 0.0 | 0.00 | 0.01 | 0.01 | 77 | 998.7 |
| 20260902083504 | 55 | 5 | 0.0 | 0.0 | 0.00 | 0.01 | 0.01 | 79 | 998.8 |
| 20260902083005 | 54 | 5 | 0.0 | 0.0 | 0.00 | 0.01 | 0.01 | 82 | 998.8 |
| 20260902082504 | 54 | 5 | 0.0 | 0.0 | 0.00 | 0.01 | 0.01 | 80 | 998.8 |
| 20260902082004 | 53 | 328 | 0.0 | 0.0 | 0.00 | 0.01 | 0.01 | 82 | 998.8 |
| 20260902081504 | 53 | 312 | 0.0 | 0.0 | 0.00 | 0.01 | 0.01 | 84 | 998.8 |
| 20260902081004 | 52 | 312 | 0.0 | 0.0 | 0.00 | 0.01 | 0.01 | 85 | 998.8 |
| 20260902080004 | 51 | 298 | 0.0 | 0.0 | 0.00 | 0.01 | 0.01 | 86 | 999.0 |
| 20260902075504 | 51 | 298 | 0.0 | 0.0 | 0.00 | 0.01 | 0.01 | 87 | 999.0 |
| 20260902074504 | 50 | 298 | 0.0 | 0.0 | 0.00 | 0.01 | 0.01 | 88 | 999.0 |
| 20260902073504 | 49 | 298 | 0.0 | 0.0 | 0.00 | 0.01 | 0.01 | 89 | 999.0 |
| 20260902073004 | 49 | 298 | 0.0 | 0.0 | 0.00 | 0.01 | 0.01 | 89 | 999.0 |
| 20260902072504 | 49 | 298 | 0.0 | 0.0 | 0.00 | 0.01 | 0.01 | 86 | 999.1 |
| 20260902072004 | 48 | 298 | 0.0 | 0.0 | 0.00 | 0.01 | 0.01 | 83 | 999.0 |
| 20260902071504 | 48 | 298 | 0.0 | 0.0 | 0.00 | 0.01 | 0.01 | 80 | 999.1 |
| 20260902071004 | 47 | 298 | 0.0 | 0.0 | 0.00 | 0.01 | 0.01 | 79 | 999.1 |
| 20260902070504 | 47 | 298 | 0.0 | 0.0 | 0.00 | 0.01 | 0.01 | 78 | 999.0 |
| 20260902070006 | 46 | 298 | 0.0 | 0.0 | 0.00 | 0.01 | 0.01 | 78 | 999.0 |
| 20260902065504 | 46 | 298 | 0.0 | 0.0 | 0.00 | 0.02 | 0.01 | 78 | 999.0 |
| 20260902064004 | 46 | 298 | 0.0 | 0.0 | 0.00 | 0.03 | 0.01 | 78 | 998.9 |
| 20260902063505 | 45 | 298 | 0.0 | 0.0 | 0.00 | 0.03 | 0.01 | 78 | 998.9 |
| 20260902063004 | 45 | 298 | 0.0 | 0.0 | 0.00 | 0.03 | 0.01 | 78 | 998.9 |
| 20260902062504 | 45 | 298 | 0.0 | 0.0 | 0.00 | 0.03 | 0.01 | 78 | 998.9 |
| 20260902062004 | 45 | 298 | 0.0 | 0.0 | 0.00 | 0.03 | 0.01 | 78 | 999.0 |
| 20260902061004 | 44 | 298 | 0.0 | 0.0 | 0.00 | 0.03 | 0.01 | 78 | 999.0 |
| 20260902060504 | 44 | 298 | 0.0 | 0.0 | 0.00 | 0.03 | 0.01 | 79 | 999.0 |
| 20260902060004 | 43 | 298 | 0.0 | 0.0 | 0.00 | 0.03 | 0.01 | 79 | 999.0 |
| 20260902055507 | 42 | 298 | 0.0 | 0.0 | 0.00 | 0.03 | 0.01 | 79 | 998.9 |
| 20260902055004 | 41 | 298 | 0.0 | 0.0 | 0.00 | 0.03 | 0.01 | 79 | 999.0 |
| 20260902054504 | 40 | 298 | 0.0 | 0.0 | 0.00 | 0.03 | 0.01 | 80 | 999.0 |
| 20260902054004 | 39 | 298 | 0.0 | 0.0 | 0.00 | 0.03 | 0.01 | 80 | 999.0 |
| 20260902053505 | 39 | 298 | 0.0 | 0.0 | 0.00 | 0.03 | 0.01 | 81 | 999.0 |
| 20260902053004 | 38 | 298 | 0.0 | 0.0 | 0.00 | 0.03 | 0.01 | 81 | 999.0 |
| 20260902052503 | 38 | 298 | 0.0 | 0.0 | 0.00 | 0.03 | 0.01 | 81 | 998.9 |
| 20260902052004 | 37 | 298 | 0.0 | 0.0 | 0.00 | 0.03 | 0.01 | 82 | 999.0 |
| 20260902051504 | 37 | 298 | 0.0 | 0.0 | 0.00 | 0.03 | 0.01 | 83 | 999.0 |
| 20260902050504 | 36 | 298 | 0.0 | 0.0 | 0.00 | 0.03 | 0.01 | 83 | 999.0 |
| 20260902050007 | 36 | 298 | 0.0 | 0.0 | 0.00 | 0.03 | 0.01 | 84 | 999.0 |
| 20260902045505 | 36 | 298 | 0.0 | 0.0 | 0.00 | 0.03 | 0.01 | 84 | 999.1 |
| 20260902045004 | 36 | 298 | 0.0 | 0.0 | 0.00 | 0.03 | 0.01 | 85 | 999.0 |
| 20260902044504 | 35 | 298 | 0.0 | 0.0 | 0.00 | 0.03 | 0.01 | 85 | 999.1 |
| 20260902044005 | 35 | 298 | 0.0 | 0.0 | 0.00 | 0.03 | 0.01 | 85 | 999.1 |
| 20260902043505 | 35 | 298 | 0.0 | 0.0 | 0.00 | 0.03 | 0.01 | 85 | 999.2 |
| 20260902042505 | 35 | 298 | 0.0 | 0.0 | 0.00 | 0.03 | 0.01 | 86 | 999.2 |
| 20260902042004 | 35 | 298 | 0.0 | 0.0 | 0.00 | 0.03 | 0.01 | 86 | 999.2 |
| 20260902041505 | 35 | 298 | 0.0 | 0.0 | 0.00 | 0.03 | 0.01 | 86 | 999.2 |
| 20260902041004 | 35 | 298 | 0.0 | 0.0 | 0.00 | 0.03 | 0.01 | 86 | 999.2 |
| 20260902040004 | 35 | 298 | 0.0 | 0.0 | 0.00 | 0.03 | 0.01 | 87 | 999.2 |
| 20260902035504 | 35 | 298 | 0.0 | 0.0 | 0.00 | 0.03 | 0.01 | 87 | 999.2 |
| 20260902035004 | 35 | 298 | 0.0 | 0.0 | 0.00 | 0.03 | 0.01 | 87 | 999.2 |
| 20260902034504 | 35 | 298 | 0.0 | 0.0 | 0.00 | 0.03 | 0.01 | 87 | 999.3 |
| 20260902034004 | 35 | 298 | 0.0 | 0.0 | 0.00 | 0.03 | 0.01 | 87 | 999.3 |
| 20260902033504 | 35 | 298 | 0.0 | 0.0 | 0.00 | 0.03 | 0.01 | 87 | 999.3 |
| 20260902033004 | 35 | 298 | 0.0 | 0.0 | 0.00 | 0.03 | 0.01 | 87 | 999.3 |
| 20260902032504 | 35 | 298 | 0.0 | 0.0 | 0.00 | 0.03 | 0.01 | 87 | 999.4 |
| 20260902032004 | 35 | 298 | 0.0 | 0.0 | 0.00 | 0.03 | 0.01 | 88 | 999.4 |
| 20260902031504 | 35 | 298 | 0.0 | 0.0 | 0.00 | 0.03 | 0.01 | 87 | 999.4 |
| 20260902031004 | 35 | 298 | 0.0 | 0.0 | 0.00 | 0.03 | 0.01 | 87 | 999.5 |
| 20260902030504 | 36 | 298 | 0.0 | 0.0 | 0.00 | 0.03 | 0.01 | 87 | 999.6 |
| 20260902030005 | 36 | 298 | 0.0 | 0.0 | 0.00 | 0.03 | 0.01 | 87 | 999.6 |
| 20260902025504 | 36 | 298 | 0.0 | 0.0 | 0.00 | 0.03 | 0.01 | 87 | 999.5 |
| 20260902024004 | 36 | 298 | 0.0 | 0.0 | 0.00 | 0.03 | 0.01 | 88 | 999.4 |
| 20260902023504 | 36 | 298 | 0.0 | 0.0 | 0.00 | 0.03 | 0.01 | 88 | 999.4 |
| 20260902023004 | 36 | 298 | 0.0 | 0.0 | 0.00 | 0.03 | 0.01 | 88 | 999.4 |
| 20260902022504 | 36 | 298 | 0.0 | 0.0 | 0.00 | 0.03 | 0.01 | 88 | 999.4 |
| 20260902022004 | 36 | 298 | 0.0 | 0.0 | 0.00 | 0.03 | 0.01 | 88 | 999.4 |
| 20260902021005 | 37 | 298 | 0.0 | 0.0 | 0.00 | 0.03 | 0.01 | 88 | 999.4 |
| 20260902020004 | 37 | 298 | 0.0 | 0.0 | 0.00 | 0.03 | 0.01 | 88 | 999.4 |
| 20260902015504 | 37 | 298 | 0.0 | 0.0 | 0.00 | 0.03 | 0.01 | 88 | 999.4 |
| 20260902014504 | 37 | 298 | 0.0 | 0.0 | 0.01 | 0.03 | 0.01 | 88 | 999.4 |
| 20260902014004 | 37 | 298 | 0.0 | 0.0 | 0.01 | 0.03 | 0.01 | 88 | 999.4 |
| 20260902013004 | 37 | 298 | 0.0 | 0.0 | 0.01 | 0.03 | 0.01 | 88 | 999.4 |
| 20260902012504 | 37 | 298 | 0.0 | 0.0 | 0.01 | 0.03 | 0.01 | 88 | 999.3 |
| 20260902012005 | 37 | 298 | 0.0 | 0.0 | 0.01 | 0.03 | 0.01 | 88 | 999.3 |
| 20260902011504 | 37 | 298 | 0.0 | 0.0 | 0.01 | 0.03 | 0.01 | 88 | 999.4 |
| 20260902011004 | 38 | 298 | 0.0 | 0.0 | 0.01 | 0.03 | 0.01 | 88 | 999.4 |
| 20260902010505 | 38 | 298 | 0.0 | 0.0 | 0.01 | 0.03 | 0.01 | 88 | 999.4 |
| 20260902010004 | 38 | 298 | 0.0 | 0.0 | 0.01 | 0.03 | 0.01 | 88 | 999.4 |
| 20260902005504 | 38 | 298 | 0.0 | 0.0 | 0.01 | 0.03 | 0.01 | 88 | 999.4 |
| 20260902005004 | 38 | 298 | 0.0 | 0.0 | 0.01 | 0.03 | 0.01 | 88 | 999.4 |
| 20260902004504 | 38 | 298 | 0.0 | 0.0 | 0.00 | 0.02 | 0.00 | 88 | 999.4 |
| 20260902004004 | 38 | 298 | 0.0 | 0.0 | 0.00 | 0.02 | 0.00 | 88 | 999.4 |
| 20260902002504 | 38 | 298 | 0.0 | 0.0 | 0.00 | 0.02 | 0.00 | 89 | 999.4 |
| 20260902002005 | 38 | 298 | 0.0 | 0.0 | 0.00 | 0.02 | 0.00 | 89 | 999.4 |
| 20260902001504 | 38 | 298 | 0.0 | 0.0 | 0.00 | 0.02 | 0.00 | 89 | 999.5 |
| 20260902001005 | 38 | 298 | 0.0 | 0.0 | 0.00 | 0.02 | 0.00 | 89 | 999.5 |
| 20260901235504 | 39 | 298 | 0.0 | 0.0 | 0.00 | 0.02 | 0.00 | 89 | 999.5 |
| 20260901235004 | 39 | 298 | 0.0 | 0.0 | 0.00 | 0.02 | 0.00 | 89 | 999.5 |
| 20260901234504 | 39 | 298 | 0.0 | 0.0 | 0.00 | 0.02 | 0.00 | 89 | 999.5 |
| 20260901234005 | 39 | 298 | 0.0 | 0.0 | 0.00 | 0.02 | 0.00 | 89 | 999.5 |
| 20260901233504 | 39 | 298 | 0.0 | 0.0 | 0.00 | 0.02 | 0.00 | 89 | 999.5 |
| 20260901233005 | 40 | 298 | 0.0 | 0.0 | 0.00 | 0.02 | 0.00 | 89 | 999.5 |
| 20260901232504 | 40 | 298 | 0.0 | 0.0 | 0.00 | 0.02 | 0.00 | 89 | 999.5 |
| 20260901231504 | 40 | 298 | 0.0 | 0.0 | 0.00 | 0.02 | 0.00 | 89 | 999.6 |
| 20260901231005 | 40 | 298 | 0.0 | 0.0 | 0.00 | 0.02 | 0.00 | 89 | 999.6 |
| 20260901230505 | 40 | 298 | 0.0 | 0.0 | 0.00 | 0.02 | 0.00 | 90 | 999.5 |
| 20260901225504 | 41 | 298 | 0.0 | 0.0 | 0.00 | 0.02 | 0.00 | 89 | 999.5 |
| 20260901225004 | 41 | 298 | 0.0 | 0.0 | 0.00 | 0.02 | 0.00 | 89 | 999.5 |
| 20260901224505 | 41 | 298 | 0.0 | 0.0 | 0.00 | 0.02 | 0.00 | 90 | 999.5 |
| 20260901224004 | 41 | 298 | 0.0 | 0.0 | 0.00 | 0.02 | 0.00 | 89 | 999.5 |
| 20260901223505 | 41 | 298 | 0.0 | 0.0 | 0.00 | 0.02 | 0.00 | 90 | 999.5 |
| 20260901223004 | 42 | 298 | 0.0 | 0.0 | 0.00 | 0.02 | 0.00 | 90 | 999.5 |
| 20260901222504 | 42 | 298 | 0.0 | 0.0 | 0.00 | 0.02 | 0.00 | 89 | 999.5 |
| 20260901222004 | 42 | 298 | 0.0 | 0.0 | 0.00 | 0.02 | 0.00 | 90 | 999.5 |
| 20260901221504 | 42 | 298 | 0.0 | 0.0 | 0.00 | 0.02 | 0.00 | 89 | 999.4 |
| 20260901221004 | 43 | 298 | 0.0 | 0.0 | 0.00 | 0.02 | 0.00 | 89 | 999.5 |
| 20260901220505 | 43 | 298 | 0.0 | 0.0 | 0.00 | 0.02 | 0.00 | 89 | 999.5 |
| 20260901215504 | 43 | 298 | 0.0 | 0.0 | 0.00 | 0.02 | 0.02 | 90 | 999.5 |
| 20260901214505 | 43 | 298 | 0.0 | 0.0 | 0.00 | 0.02 | 0.02 | 90 | 999.4 |
| 20260901214004 | 43 | 298 | 0.0 | 0.0 | 0.00 | 0.02 | 0.02 | 90 | 999.4 |
| 20260901213505 | 43 | 298 | 0.0 | 0.0 | 0.00 | 0.02 | 0.02 | 90 | 999.5 |
| 20260901213004 | 44 | 298 | 0.0 | 0.0 | 0.00 | 0.02 | 0.02 | 90 | 999.5 |
| 20260901212004 | 44 | 298 | 0.0 | 0.0 | 0.00 | 0.02 | 0.02 | 89 | 999.4 |
| 20260901211504 | 45 | 298 | 0.0 | 0.0 | 0.00 | 0.02 | 0.02 | 89 | 999.4 |
| 20260901211004 | 45 | 298 | 0.0 | 0.0 | 0.00 | 0.02 | 0.02 | 89 | 999.4 |
| 20260901210504 | 46 | 298 | 0.0 | 0.0 | 0.00 | 0.02 | 0.02 | 89 | 999.3 |
| 20260901205504 | 47 | 298 | 0.0 | 0.0 | 0.00 | 0.02 | 0.02 | 88 | 999.3 |
| 20260901205005 | 47 | 298 | 0.0 | 0.0 | 0.00 | 0.02 | 0.02 | 88 | 999.2 |
| 20260901204504 | 48 | 298 | 0.0 | 0.0 | 0.00 | 0.02 | 0.02 | 88 | 999.2 |
| 20260901204005 | 48 | 298 | 0.0 | 0.0 | 0.00 | 0.02 | 0.02 | 87 | 999.3 |
| 20260901203505 | 49 | 298 | 0.0 | 0.0 | 0.00 | 0.02 | 0.02 | 86 | 999.3 |
| 20260901203004 | 49 | 298 | 0.0 | 0.0 | 0.00 | 0.02 | 0.02 | 86 | 999.3 |
| 20260901202504 | 49 | 298 | 0.0 | 0.0 | 0.00 | 0.02 | 0.02 | 86 | 999.2 |
| 20260901201504 | 49 | 304 | 0.9 | 4.3 | 0.00 | 0.02 | 0.02 | 86 | 999.2 |
| 20260901201004 | 50 | 285 | 0.0 | 0.9 | 0.00 | 0.03 | 0.02 | 85 | 999.1 |
| 20260901200004 | 50 | 285 | 0.9 | 4.3 | 0.00 | 0.06 | 0.02 | 85 | 999.2 |
| 20260901195504 | 51 | 283 | 0.0 | 0.0 | 0.00 | 0.08 | 0.02 | 85 | 999.2 |
| 20260901195004 | 51 | 283 | 0.0 | 2.6 | 0.00 | 0.09 | 0.02 | 84 | 999.2 |
| 20260901194504 | 51 | 281 | 0.0 | 2.6 | 0.00 | 0.10 | 0.02 | 85 | 999.2 |
| 20260901193505 | 51 | 277 | 0.9 | 2.6 | 0.00 | 0.12 | 0.02 | 85 | 999.1 |
| 20260901193004 | 51 | 290 | 1.7 | 4.3 | 0.00 | 0.12 | 0.02 | 86 | 999.1 |
| 20260901192505 | 51 | 299 | 0.9 | 4.3 | 0.00 | 0.12 | 0.02 | 86 | 999.1 |
| 20260901192004 | 51 | 281 | 1.7 | 4.3 | 0.00 | 0.12 | 0.02 | 86 | 999.1 |
| 20260901191504 | 50 | 290 | 1.7 | 2.6 | 0.00 | 0.12 | 0.02 | 87 | 999.1 |
| 20260901190504 | 50 | 272 | 0.9 | 2.6 | 0.00 | 0.12 | 0.02 | 88 | 999.1 |
| 20260901190004 | 50 | 300 | 0.0 | 0.0 | 0.00 | 0.12 | 0.02 | 88 | 999.1 |
| 20260901185004 | 50 | 300 | 0.9 | 6.1 | 0.00 | 0.12 | 0.02 | 87 | 999.1 |
| 20260901184004 | 51 | 275 | 0.0 | 0.0 | 0.00 | 0.12 | 0.02 | 86 | 999.1 |
| 20260901183504 | 51 | 275 | 0.0 | 1.7 | 0.00 | 0.12 | 0.02 | 86 | 999.1 |
| 20260901183004 | 52 | 275 | 0.0 | 0.0 | 0.00 | 0.12 | 0.02 | 85 | 999.1 |
| 20260901182504 | 52 | 275 | 0.0 | 0.0 | 0.00 | 0.12 | 0.02 | 85 | 999.1 |
| 20260901182004 | 53 | 275 | 0.0 | 0.0 | 0.00 | 0.12 | 0.02 | 85 | 999.1 |
| 20260901181505 | 53 | 275 | 0.0 | 2.6 | 0.00 | 0.13 | 0.02 | 84 | 999.1 |
| 20260901181004 | 53 | 275 | 0.0 | 0.0 | 0.00 | 0.13 | 0.02 | 84 | 999.0 |
| 20260901180504 | 53 | 275 | 0.0 | 1.7 | 0.00 | 0.14 | 0.02 | 84 | 999.0 |
| 20260901180004 | 53 | 275 | 0.0 | 0.0 | 0.00 | 0.14 | 0.02 | 84 | 998.9 |
| 20260901174504 | 55 | 275 | 0.0 | 0.0 | 0.00 | 0.16 | 0.02 | 80 | 999.0 |
| 20260901173504 | 56 | 275 | 0.0 | 0.0 | 0.00 | 0.16 | 0.02 | 78 | 999.0 |
| 20260901173004 | 57 | 275 | 0.9 | 2.6 | 0.00 | 0.16 | 0.02 | 76 | 998.9 |
| 20260901172504 | 57 | 272 | 0.9 | 4.3 | 0.00 | 0.16 | 0.02 | 75 | 998.9 |
| 20260901172004 | 57 | 285 | 1.7 | 5.2 | 0.00 | 0.16 | 0.02 | 75 | 998.8 |
| 20260901171504 | 57 | 313 | 4.3 | 10.4 | 0.00 | 0.16 | 0.02 | 74 | 998.8 |
| 20260901170504 | 58 | 292 | 2.6 | 8.7 | 0.00 | 0.16 | 0.02 | 74 | 998.8 |
| 20260901170004 | 58 | 303 | 1.7 | 8.7 | 0.00 | 0.16 | 0.02 | 74 | 998.7 |